Weather at Establecimiento La Adelita Airport

Public forecast

Using degrees Celsius for public forecast. Weather courtesy of forecast.io.

Closest aviation weather report (METAR) to Establecimiento La Adelita Airport

Closest report is Rosario Islas Malvinas International Airport, 92.5 nm (171.4 km) SSE.

2024/07/19 09:00 (retrieved 11 minutes ago)

SAAR 190900Z 15003KT CAVOK 12/10 Q1020

Closest aviation forecast (TAF) to Establecimiento La Adelita Airport

Closest forecast is Rosario Islas Malvinas International Airport, 92.5 nm (171.4 km) SSE.

2024/07/19 06:00 (retrieved 3 hours ago)

TAF SAAR 190500Z 1906/2006 18005KT CAVOK TX16/1917Z TN06/2006Z PROB30 1908/1911 5000 BR SCT040 BECMG 1912/1914 16015KT 9999 SCT030 BKN040 PROB30 TEMPO 1917/1921 16015G30KT 7000 RA SCT020 OVC040